Time;durP1;ratioP1;P1;durP2;ratioP2;P2;SDS_P1;SDS_P2;PMS_P1;PMS_P2;Temp;Humidity;BMP_temperature;BMP_pressure;BME280_temperature;BME280_humidity;BME280_pressure;Samples;Min_cycle;Max_cycle;Signal;HPM_P1;HPM_P2
2021/11/09 00:00:21;;;;;;;5.03;3.25;;;12.20;99.90;;;;;;4889081;29;20048;-56
2021/11/09 00:02:49;;;;;;;4.07;2.80;;;12.20;99.90;;;;;;4865807;29;20131;-57
2021/11/09 00:05:19;;;;;;;4.93;3.10;;;12.20;99.90;;;;;;4885172;29;20086;-56
2021/11/09 00:07:53;;;;;;;4.88;3.00;;;12.30;99.90;;;;;;4877721;29;20060;-59
2021/11/09 00:10:20;;;;;;;3.90;2.63;;;12.30;99.90;;;;;;4885111;29;20148;-56
2021/11/09 00:12:52;;;;;;;4.47;3.22;;;12.30;99.90;;;;;;4869778;29;20529;-57
2021/11/09 00:15:20;;;;;;;4.10;2.97;;;12.30;99.90;;;;;;4854064;29;20053;-56
2021/11/09 00:17:52;;;;;;;3.85;2.67;;;12.30;99.90;;;;;;4858687;29;20103;-54
2021/11/09 00:20:20;;;;;;;3.90;2.80;;;12.30;99.90;;;;;;4854463;29;20049;-54
2021/11/09 00:22:47;;;;;;;4.35;2.72;;;12.30;99.90;;;;;;4861902;29;20537;-55
2021/11/09 00:25:14;;;;;;;4.35;2.83;;;12.30;99.90;;;;;;4865679;29;20086;-56
2021/11/09 00:27:41;;;;;;;3.90;2.83;;;12.30;99.90;;;;;;4886333;29;20132;-56
2021/11/09 00:30:09;;;;;;;4.18;2.72;;;12.40;99.90;;;;;;4866744;29;20986;-54
2021/11/09 00:32:38;;;;;;;4.28;2.67;;;12.30;99.90;;;;;;4867717;29;20333;-55
2021/11/09 00:35:06;;;;;;;3.50;2.53;;;12.30;99.90;;;;;;4873995;29;20049;-54
2021/11/09 00:37:33;;;;;;;4.05;2.58;;;12.40;99.90;;;;;;4868014;29;20052;-54
2021/11/09 00:40:00;;;;;;;3.17;2.60;;;12.40;99.90;;;;;;4888956;29;20378;-55
2021/11/09 00:42:27;;;;;;;4.45;3.25;;;12.40;99.90;;;;;;4873797;29;20065;-56
2021/11/09 00:44:53;;;;;;;4.10;2.55;;;12.40;99.90;;;;;;4873434;29;20049;-56
2021/11/09 00:47:20;;;;;;;4.22;2.83;;;12.40;99.90;;;;;;4889191;29;20095;-56
2021/11/09 00:49:47;;;;;;;3.60;2.60;;;12.40;99.90;;;;;;4888416;29;20212;-56
2021/11/09 00:52:14;;;;;;;4.15;3.20;;;12.40;99.90;;;;;;4861495;29;20064;-56
2021/11/09 00:54:41;;;;;;;4.03;2.70;;;12.40;99.90;;;;;;4884297;29;20433;-53
2021/11/09 00:57:08;;;;;;;3.75;2.97;;;12.40;99.90;;;;;;4883216;29;20128;-55
2021/11/09 00:59:35;;;;;;;4.57;3.38;;;12.40;99.90;;;;;;4864012;29;20053;-55
2021/11/09 01:02:03;;;;;;;3.15;2.53;;;12.50;99.90;;;;;;4860897;29;20075;-56
2021/11/09 01:04:31;;;;;;;3.70;3.13;;;12.40;99.90;;;;;;4876107;29;20054;-56
2021/11/09 01:06:57;;;;;;;3.72;3.10;;;12.50;99.90;;;;;;4870717;29;20137;-57
2021/11/09 01:09:24;;;;;;;3.72;2.90;;;12.40;99.90;;;;;;4871682;29;20130;-54
2021/11/09 01:11:52;;;;;;;4.57;3.53;;;12.50;99.90;;;;;;4880924;29;20048;-54
2021/11/09 01:14:18;;;;;;;4.25;2.80;;;12.50;99.90;;;;;;4886438;29;20083;-55
2021/11/09 01:16:45;;;;;;;3.72;2.97;;;12.50;99.90;;;;;;4872729;29;20147;-56
2021/11/09 01:19:13;;;;;;;4.55;3.47;;;12.50;99.90;;;;;;4890228;29;20056;-52
2021/11/09 01:21:41;;;;;;;4.20;3.67;;;12.50;99.90;;;;;;4882935;29;20116;-53
2021/11/09 01:24:08;;;;;;;5.20;3.97;;;12.50;99.90;;;;;;4872913;29;20056;-56
2021/11/09 01:26:35;;;;;;;4.47;3.28;;;12.60;99.90;;;;;;4889709;29;20083;-55
2021/11/09 01:29:05;;;;;;;5.40;4.07;;;12.60;99.90;;;;;;4891448;29;20048;-56
2021/11/09 01:31:33;;;;;;;4.78;3.38;;;12.60;99.90;;;;;;4883264;29;20092;-56
2021/11/09 01:34:00;;;;;;;4.60;3.70;;;12.60;99.90;;;;;;4876231;29;20128;-54
2021/11/09 01:36:27;;;;;;;5.00;3.60;;;12.60;99.90;;;;;;4871423;29;20850;-56
2021/11/09 01:38:54;;;;;;;4.75;3.50;;;12.60;99.90;;;;;;4869509;29;20060;-56
2021/11/09 01:41:21;;;;;;;4.03;3.60;;;12.60;99.90;;;;;;4885443;29;20270;-57
2021/11/09 01:43:48;;;;;;;5.45;3.80;;;12.60;99.90;;;;;;4868847;29;20053;-57
2021/11/09 01:46:15;;;;;;;5.75;3.63;;;12.60;99.90;;;;;;4872439;29;20109;-53
2021/11/09 01:48:42;;;;;;;4.30;3.40;;;12.60;99.90;;;;;;4872819;29;20045;-53
2021/11/09 01:51:12;;;;;;;4.60;3.72;;;12.60;99.90;;;;;;4870952;29;20081;-54
2021/11/09 01:53:39;;;;;;;4.82;3.50;;;12.60;99.90;;;;;;4883909;29;20056;-55
2021/11/09 01:56:07;;;;;;;3.95;3.53;;;12.60;99.90;;;;;;4872338;29;20069;-53
2021/11/09 01:58:35;;;;;;;4.65;3.65;;;12.60;99.90;;;;;;4872382;29;20542;-54
2021/11/09 02:01:06;;;;;;;4.60;3.20;;;12.60;99.90;;;;;;4880449;29;20131;-57
2021/11/09 02:03:34;;;;;;;5.07;3.53;;;12.60;99.90;;;;;;4887660;29;20170;-54
2021/11/09 02:06:01;;;;;;;5.15;3.47;;;12.60;99.90;;;;;;4890239;29;20114;-53
2021/11/09 02:08:28;;;;;;;4.28;3.00;;;12.60;99.90;;;;;;4872155;29;20103;-56
2021/11/09 02:10:55;;;;;;;4.32;3.17;;;12.60;99.90;;;;;;4888375;29;20052;-56
2021/11/09 02:13:22;;;;;;;3.97;3.30;;;12.60;99.90;;;;;;4866764;29;20084;-56
2021/11/09 02:15:50;;;;;;;4.25;3.50;;;12.60;99.90;;;;;;4872194;29;20085;-56
2021/11/09 02:18:17;;;;;;;4.07;2.90;;;12.60;99.90;;;;;;4872040;29;20068;-55
2021/11/09 02:20:57;;;;;;;4.15;3.13;;;12.60;99.90;;;;;;4872313;29;20546;-57
2021/11/09 02:23:31;;;;;;;4.05;3.03;;;12.60;99.90;;;;;;4888315;29;20127;-56
2021/11/09 02:25:58;;;;;;;4.00;2.92;;;12.70;99.90;;;;;;4890151;29;20334;-55
2021/11/09 02:28:25;;;;;;;3.78;3.42;;;12.70;99.90;;;;;;4873805;29;20084;-56
2021/11/09 02:30:52;;;;;;;4.70;3.40;;;12.70;99.90;;;;;;4890641;29;20053;-55
2021/11/09 02:33:19;;;;;;;5.43;3.42;;;12.70;99.90;;;;;;4892699;29;20076;-56
2021/11/09 02:35:45;;;;;;;4.10;3.33;;;12.70;99.90;;;;;;4892009;29;20053;-49
2021/11/09 02:38:12;;;;;;;4.63;3.38;;;12.70;99.90;;;;;;4890416;29;20155;-52
2021/11/09 02:40:39;;;;;;;4.63;3.28;;;12.70;99.90;;;;;;4892723;29;20099;-56
2021/11/09 02:43:08;;;;;;;4.38;3.47;;;12.80;99.90;;;;;;4883186;29;20053;-53
2021/11/09 02:45:42;;;;;;;4.40;3.28;;;12.80;99.90;;;;;;4874964;29;20084;-55
2021/11/09 02:48:25;;;;;;;4.68;3.70;;;12.80;99.90;;;;;;4891792;29;20485;-55
2021/11/09 02:51:01;;;;;;;4.03;3.50;;;12.80;99.90;;;;;;4890310;29;20163;-54
2021/11/09 02:53:41;;;;;;;4.40;3.72;;;12.80;99.90;;;;;;4889192;29;20418;-48
2021/11/09 02:58:46;;;;;;;4.78;4.28;;;12.70;99.90;;;;;;4891185;29;20076;-55
2021/11/09 03:03:51;;;;;;;4.53;3.90;;;12.80;99.90;;;;;;4891226;29;20481;-56
2021/11/09 03:06:26;;;;;;;5.25;3.42;;;12.80;99.90;;;;;;4889138;29;20135;-55
2021/11/09 03:09:02;;;;;;;5.22;3.50;;;12.90;99.90;;;;;;4889591;29;20295;-55
2021/11/09 03:11:29;;;;;;;4.03;3.63;;;12.80;99.90;;;;;;4889663;29;20576;-55
2021/11/09 03:13:57;;;;;;;5.22;4.03;;;12.80;99.90;;;;;;4891298;29;20127;-55
2021/11/09 03:16:25;;;;;;;4.45;3.22;;;12.90;99.90;;;;;;4890568;29;20409;-54
2021/11/09 03:19:10;;;;;;;4.00;3.30;;;12.90;99.90;;;;;;4890679;29;20456;-56
2021/11/09 03:46:39;;;;;;;2.72;2.30;;;13.00;99.90;;;;;;4890379;29;20052;-52
2021/11/09 03:49:06;;;;;;;4.20;2.85;;;13.10;99.90;;;;;;4890810;29;20048;-55
2021/11/09 03:51:34;;;;;;;3.28;2.60;;;13.10;99.90;;;;;;4889368;29;20095;-55
2021/11/09 03:54:03;;;;;;;3.40;2.33;;;13.10;99.90;;;;;;4893344;29;20269;-53
2021/11/09 03:56:37;;;;;;;3.25;2.55;;;13.10;99.90;;;;;;4863489;29;20110;-55
2021/11/09 03:59:10;;;;;;;2.92;2.55;;;13.10;99.90;;;;;;4875298;29;20076;-53
2021/11/09 04:01:59;;;;;;;4.07;2.65;;;13.10;99.90;;;;;;4863757;29;20159;-55
2021/11/09 04:04:37;;;;;;;2.67;2.38;;;13.10;99.90;;;;;;4893733;29;20051;-54
2021/11/09 04:07:08;;;;;;;3.65;2.20;;;13.10;99.90;;;;;;4885755;29;20579;-54
2021/11/09 04:09:45;;;;;;;3.13;2.47;;;13.10;99.90;;;;;;4874116;29;20057;-55
2021/11/09 04:20:16;;;;;;;2.90;2.30;;;13.10;99.90;;;;;;4893472;29;20297;-54
2021/11/09 05:10:44;;;;;;;2.25;1.40;;;13.20;99.90;;;;;;4892818;29;20135;-55
2021/11/09 05:13:11;;;;;;;1.33;1.00;;;13.20;99.90;;;;;;4892405;29;20523;-56
2021/11/09 05:15:38;;;;;;;1.30;0.90;;;13.20;99.90;;;;;;4886845;29;20121;-55
2021/11/09 05:18:05;;;;;;;1.40;0.93;;;13.20;99.90;;;;;;4876347;29;20104;-55
2021/11/09 05:20:32;;;;;;;1.85;1.17;;;13.20;99.90;;;;;;4875483;29;20084;-54
2021/11/09 05:22:59;;;;;;;1.33;0.98;;;13.20;99.90;;;;;;4890327;29;20114;-55
2021/11/09 05:25:26;;;;;;;2.05;1.10;;;13.20;99.90;;;;;;4887473;29;20080;-54
2021/11/09 05:27:53;;;;;;;1.80;1.30;;;13.20;99.90;;;;;;4874103;29;20516;-54
2021/11/09 05:30:21;;;;;;;1.80;1.23;;;13.20;99.90;;;;;;4891894;29;20510;-55
2021/11/09 05:32:49;;;;;;;1.85;1.10;;;13.20;99.90;;;;;;4892119;29;20098;-53
2021/11/09 05:35:16;;;;;;;1.88;1.20;;;13.20;99.90;;;;;;4871979;29;20087;-55
2021/11/09 05:37:46;;;;;;;1.70;1.20;;;13.20;99.90;;;;;;4872193;29;20125;-52
2021/11/09 05:40:13;;;;;;;1.92;1.23;;;13.20;99.90;;;;;;4890998;29;20139;-55
2021/11/09 05:42:39;;;;;;;3.30;1.58;;;13.20;99.90;;;;;;4891426;29;20068;-55
2021/11/09 05:45:09;;;;;;;2.60;1.20;;;13.10;99.90;;;;;;4890509;29;20076;-53
2021/11/09 05:47:36;;;;;;;2.50;1.42;;;13.10;99.90;;;;;;4855367;29;20053;-54
2021/11/09 05:50:04;;;;;;;2.15;1.38;;;13.10;99.90;;;;;;4887470;29;20163;-55
2021/11/09 05:52:31;;;;;;;1.95;1.50;;;13.10;99.90;;;;;;4887159;29;20064;-48
2021/11/09 05:54:58;;;;;;;2.65;1.67;;;13.10;99.90;;;;;;4889522;29;20087;-51
2021/11/09 05:57:24;;;;;;;2.65;1.80;;;13.10;99.90;;;;;;4889523;29;20056;-55
2021/11/09 05:59:51;;;;;;;1.55;1.20;;;13.10;99.90;;;;;;4889213;29;20540;-54
2021/11/09 06:02:18;;;;;;;2.00;1.35;;;13.00;99.90;;;;;;4887549;29;20527;-55
2021/11/09 06:04:50;;;;;;;1.80;1.38;;;13.00;99.90;;;;;;4886677;29;20667;-56
2021/11/09 06:07:17;;;;;;;2.45;1.65;;;13.00;99.90;;;;;;4883366;29;20052;-54
2021/11/09 06:09:44;;;;;;;2.50;1.45;;;13.00;99.90;;;;;;4874018;29;20671;-54
2021/11/09 06:12:11;;;;;;;2.10;1.70;;;13.00;99.90;;;;;;4864021;29;20061;-55
2021/11/09 06:14:38;;;;;;;1.65;1.17;;;13.00;99.90;;;;;;4878909;29;20105;-56
2021/11/09 06:17:05;;;;;;;1.60;1.50;;;13.00;99.90;;;;;;4879495;29;20649;-56
2021/11/09 06:19:31;;;;;;;1.30;1.00;;;13.00;99.90;;;;;;4878112;29;20139;-56
2021/11/09 06:22:00;;;;;;;1.80;1.20;;;13.00;99.90;;;;;;4873864;29;20048;-55
2021/11/09 06:24:26;;;;;;;2.33;1.27;;;13.00;99.90;;;;;;4877515;29;20221;-55
2021/11/09 06:26:53;;;;;;;1.13;1.00;;;13.00;99.90;;;;;;4876688;29;20129;-54
2021/11/09 06:29:20;;;;;;;1.70;1.13;;;13.00;99.90;;;;;;4878202;29;20084;-55
2021/11/09 06:31:49;;;;;;;1.50;1.00;;;13.00;99.90;;;;;;4873153;29;20063;-55
2021/11/09 06:34:16;;;;;;;1.65;0.85;;;13.00;99.90;;;;;;4876326;29;20529;-56
2021/11/09 06:36:43;;;;;;;2.90;1.50;;;13.00;99.90;;;;;;4873902;29;20140;-56
2021/11/09 06:39:09;;;;;;;1.17;0.80;;;13.00;99.90;;;;;;4874519;29;20040;-54
2021/11/09 06:41:36;;;;;;;1.00;0.82;;;13.00;99.90;;;;;;4879400;29;20158;-53
2021/11/09 06:44:04;;;;;;;0.52;0.52;;;13.00;99.90;;;;;;4850504;29;20445;-56
2021/11/09 06:46:31;;;;;;;1.40;0.63;;;13.00;99.90;;;;;;4871387;29;20151;-56
2021/11/09 06:48:58;;;;;;;1.20;0.90;;;13.00;99.90;;;;;;4883995;29;20048;-53
2021/11/09 06:51:24;;;;;;;1.67;0.98;;;13.00;99.90;;;;;;4881801;29;20096;-54
2021/11/09 06:53:51;;;;;;;1.02;0.80;;;13.00;99.90;;;;;;4866498;29;20080;-56
2021/11/09 06:56:18;;;;;;;1.38;0.93;;;13.00;99.90;;;;;;4884121;29;20088;-57
2021/11/09 06:58:45;;;;;;;2.03;0.85;;;13.00;99.90;;;;;;4884096;29;20457;-57
2021/11/09 07:01:12;;;;;;;1.13;0.80;;;13.00;99.90;;;;;;4882834;29;20356;-56
2021/11/09 07:03:40;;;;;;;1.17;0.70;;;12.90;99.90;;;;;;4875435;29;20091;-56
2021/11/09 07:06:07;;;;;;;0.70;0.60;;;12.90;99.90;;;;;;4874786;29;20116;-57
2021/11/09 07:08:33;;;;;;;1.23;0.80;;;12.80;99.90;;;;;;4869451;29;20472;-57
2021/11/09 07:11:02;;;;;;;1.10;0.82;;;12.80;99.90;;;;;;4882503;29;20475;-56
2021/11/09 07:13:30;;;;;;;1.65;1.20;;;12.70;99.90;;;;;;4883511;29;20516;-57
2021/11/09 07:15:57;;;;;;;1.88;0.88;;;12.70;99.90;;;;;;4883202;29;20048;-57
2021/11/09 07:18:24;;;;;;;1.00;0.70;;;12.60;99.90;;;;;;4873699;29;20528;-56
2021/11/09 07:20:51;;;;;;;0.80;0.63;;;12.60;99.90;;;;;;4859779;29;20053;-57
2021/11/09 07:23:18;;;;;;;1.13;0.57;;;12.50;99.90;;;;;;4863517;29;20080;-58
2021/11/09 07:25:46;;;;;;;1.50;0.85;;;12.50;99.90;;;;;;4865436;29;20096;-56
2021/11/09 07:28:13;;;;;;;1.95;1.33;;;12.40;99.90;;;;;;4855254;29;20252;-56
2021/11/09 07:30:44;;;;;;;1.25;0.93;;;12.40;99.90;;;;;;4874977;29;20079;-56
2021/11/09 07:33:11;;;;;;;1.30;1.05;;;12.40;99.90;;;;;;4879549;29;20147;-58
2021/11/09 07:35:38;;;;;;;1.27;0.68;;;12.50;99.90;;;;;;4861022;29;20120;-57
2021/11/09 07:38:05;;;;;;;0.63;0.55;;;12.50;99.90;;;;;;4881590;29;20714;-57
2021/11/09 07:40:32;;;;;;;0.50;0.50;;;12.50;99.90;;;;;;4887148;29;20577;-57
2021/11/09 07:42:58;;;;;;;0.95;0.60;;;12.50;99.90;;;;;;4866046;29;20089;-57
2021/11/09 07:45:25;;;;;;;0.50;0.50;;;12.50;99.90;;;;;;4868018;29;20194;-57
2021/11/09 07:47:56;;;;;;;1.15;0.70;;;12.60;99.90;;;;;;4884159;29;20143;-57
2021/11/09 07:50:23;;;;;;;0.85;0.60;;;12.60;99.90;;;;;;4873692;29;20629;-57
2021/11/09 07:52:56;;;;;;;0.93;0.65;;;12.50;99.90;;;;;;4876148;29;20155;-58
2021/11/09 07:55:23;;;;;;;1.07;0.67;;;12.50;99.90;;;;;;4886153;29;20147;-58
2021/11/09 07:57:55;;;;;;;1.10;0.60;;;12.50;99.90;;;;;;4866128;29;20795;-56
2021/11/09 08:00:26;;;;;;;0.90;0.75;;;12.40;99.90;;;;;;4871633;29;20433;-57
2021/11/09 08:08:38;;;;;;;1.17;0.52;;;12.40;99.90;;;;;;4876445;29;20446;-56
2021/11/09 08:11:07;;;;;;;0.90;0.70;;;12.40;99.90;;;;;;4868084;29;20053;-56
2021/11/09 08:13:34;;;;;;;1.17;0.65;;;12.50;99.90;;;;;;4862914;29;20164;-58
2021/11/09 08:16:01;;;;;;;0.50;0.50;;;12.50;99.90;;;;;;4877967;29;20328;-56
2021/11/09 08:18:27;;;;;;;1.15;0.57;;;12.60;99.90;;;;;;4852038;29;20056;-58
2021/11/09 08:20:58;;;;;;;0.90;0.73;;;12.60;99.90;;;;;;4884241;29;20048;-57
2021/11/09 08:23:25;;;;;;;0.90;0.80;;;12.60;99.90;;;;;;4880246;29;20427;-56
2021/11/09 08:25:53;;;;;;;1.33;0.70;;;12.60;99.90;;;;;;4864617;29;20049;-58
2021/11/09 08:28:20;;;;;;;1.20;0.60;;;12.60;99.90;;;;;;4867706;29;20044;-57
2021/11/09 08:30:50;;;;;;;0.73;0.50;;;12.60;99.90;;;;;;4881338;29;20202;-57
2021/11/09 08:33:18;;;;;;;0.70;0.43;;;12.60;99.90;;;;;;4869508;29;20140;-57
2021/11/09 08:35:45;;;;;;;1.00;0.60;;;12.70;99.90;;;;;;4857878;29;20156;-57
2021/11/09 08:38:15;;;;;;;0.88;0.70;;;12.80;99.90;;;;;;4883924;29;20631;-58
2021/11/09 08:40:43;;;;;;;1.33;0.50;;;12.80;99.90;;;;;;4882166;29;20493;-55
2021/11/09 08:43:13;;;;;;;2.00;0.85;;;12.90;99.90;;;;;;4875521;29;20267;-57
2021/11/09 08:45:50;;;;;;;0.80;0.60;;;12.90;99.90;;;;;;4870743;29;20080;-56
2021/11/09 08:48:19;;;;;;;1.30;0.77;;;13.00;99.90;;;;;;4856050;29;20144;-55
2021/11/09 08:50:49;;;;;;;0.47;0.47;;;13.00;99.90;;;;;;4878812;29;20417;-58
2021/11/09 08:53:21;;;;;;;0.68;0.40;;;13.00;99.90;;;;;;4873685;29;20088;-57
2021/11/09 09:01:20;;;;;;;1.15;0.45;;;13.00;99.90;;;;;;4882600;29;21028;-58
2021/11/09 09:06:33;;;;;;;0.40;0.40;;;13.00;99.90;;;;;;4873128;29;20056;-57
2021/11/09 09:09:01;;;;;;;0.45;0.40;;;13.00;99.90;;;;;;4869845;29;20076;-57
2021/11/09 09:11:28;;;;;;;1.33;0.57;;;13.10;99.90;;;;;;4878212;29;20096;-56
2021/11/09 09:13:55;;;;;;;1.67;0.50;;;13.10;99.90;;;;;;4881921;29;20132;-58
2021/11/09 09:16:21;;;;;;;1.17;0.40;;;13.10;99.90;;;;;;4878431;29;20160;-57
2021/11/09 09:18:49;;;;;;;0.50;0.30;;;13.10;99.90;;;;;;4880896;29;20133;-57
2021/11/09 09:21:23;;;;;;;0.70;0.50;;;13.20;99.90;;;;;;4880192;29;20306;-55
2021/11/09 09:23:57;;;;;;;0.60;0.30;;;13.10;99.90;;;;;;4874314;29;20077;-57
2021/11/09 09:32:22;;;;;;;0.57;0.38;;;13.20;99.90;;;;;;4871723;29;20055;-57
2021/11/09 09:56:21;;;;;;;0.40;0.38;;;13.70;99.90;;;;;;4881014;29;20082;-56
2021/11/09 09:58:48;;;;;;;0.30;0.30;;;13.70;99.90;;;;;;4859759;29;20105;-57
2021/11/09 10:01:17;;;;;;;0.77;0.40;;;13.70;99.90;;;;;;4858326;29;20159;-55
2021/11/09 10:03:44;;;;;;;0.50;0.30;;;13.80;99.90;;;;;;4870323;29;20053;-55
2021/11/09 10:06:11;;;;;;;0.43;0.40;;;13.90;99.80;;;;;;4880978;29;20375;-54
2021/11/09 10:08:49;;;;;;;0.30;0.30;;;13.90;99.90;;;;;;4882078;29;20053;-55
2021/11/09 10:11:58;;;;;;;0.63;0.40;;;14.00;99.60;;;;;;4876099;29;20148;-57
2021/11/09 10:14:34;;;;;;;0.40;0.30;;;14.00;99.60;;;;;;4851878;29;20084;-57
2021/11/09 10:17:17;;;;;;;0.88;0.30;;;14.10;99.60;;;;;;4849715;29;20053;-56
2021/11/09 10:19:44;;;;;;;0.20;0.20;;;14.10;99.50;;;;;;4868673;29;20552;-54
2021/11/09 10:22:21;;;;;;;0.68;0.45;;;14.20;99.20;;;;;;4866576;29;20214;-57
2021/11/09 10:24:58;;;;;;;0.30;0.30;;;14.20;99.50;;;;;;4872299;29;20139;-57
2021/11/09 10:27:26;;;;;;;0.77;0.30;;;14.20;99.30;;;;;;4864540;29;20132;-54
2021/11/09 10:29:55;;;;;;;0.30;0.30;;;14.30;99.00;;;;;;4865330;29;20112;-56
2021/11/09 10:32:25;;;;;;;1.15;0.45;;;14.20;98.70;;;;;;4864520;29;20152;-57
2021/11/09 10:34:52;;;;;;;1.00;0.50;;;14.30;99.00;;;;;;4866818;29;20496;-56
2021/11/09 10:37:25;;;;;;;0.70;0.50;;;14.30;99.00;;;;;;4864167;29;20175;-55
2021/11/09 10:40:17;;;;;;;1.25;0.43;;;14.30;99.40;;;;;;4863990;29;20072;-56
2021/11/09 10:42:47;;;;;;;1.55;0.82;;;14.40;99.20;;;;;;4882687;29;20147;-57
2021/11/09 10:45:15;;;;;;;0.75;0.52;;;14.40;99.20;;;;;;4869568;29;20077;-57
2021/11/09 10:47:44;;;;;;;0.40;0.40;;;14.50;99.10;;;;;;4873851;29;20595;-55
2021/11/09 10:50:29;;;;;;;0.63;0.50;;;14.50;98.90;;;;;;4870728;29;20451;-56
2021/11/09 10:53:19;;;;;;;0.80;0.70;;;14.50;98.30;;;;;;4847021;29;20057;-56
2021/11/09 11:04:35;;;;;;;0.73;0.47;;;14.80;96.90;;;;;;4864962;29;20057;-57
2021/11/09 11:07:08;;;;;;;0.43;0.40;;;14.90;96.90;;;;;;4865589;29;20063;-57
2021/11/09 11:09:35;;;;;;;0.35;0.35;;;15.00;96.20;;;;;;4872217;29;20109;-54
2021/11/09 11:12:21;;;;;;;0.65;0.50;;;15.00;96.10;;;;;;4873734;29;20057;-57
2021/11/09 11:14:48;;;;;;;0.93;0.52;;;15.10;96.00;;;;;;4845363;29;20080;-56
2021/11/09 11:17:17;;;;;;;0.93;0.60;;;15.30;96.00;;;;;;4875644;29;20053;-58
2021/11/09 11:19:49;;;;;;;0.60;0.45;;;15.30;96.40;;;;;;4873104;29;20140;-57
2021/11/09 11:22:17;;;;;;;0.30;0.30;;;15.40;96.60;;;;;;4877795;29;20504;-55
2021/11/09 11:24:45;;;;;;;1.02;0.60;;;15.50;96.20;;;;;;4865535;29;20143;-57
2021/11/09 11:27:12;;;;;;;1.08;0.60;;;15.50;95.80;;;;;;4862404;29;20319;-57
2021/11/09 11:29:39;;;;;;;0.88;0.60;;;15.60;95.90;;;;;;4886829;29;20056;-56
2021/11/09 11:32:07;;;;;;;0.43;0.30;;;15.50;96.20;;;;;;4862963;29;20057;-56
2021/11/09 11:34:34;;;;;;;0.88;0.43;;;15.60;96.20;;;;;;4872793;29;20064;-57
2021/11/09 11:37:02;;;;;;;0.77;0.40;;;15.60;96.10;;;;;;4865132;29;20535;-56
2021/11/09 11:39:29;;;;;;;1.50;0.65;;;15.60;96.30;;;;;;4884981;29;20088;-58
2021/11/09 11:42:08;;;;;;;0.40;0.40;;;15.60;96.10;;;;;;4886055;29;20501;-56
2021/11/09 11:44:37;;;;;;;0.93;0.47;;;15.50;96.20;;;;;;4853810;29;20112;-58
2021/11/09 11:47:21;;;;;;;0.73;0.50;;;15.50;96.00;;;;;;4878095;29;20076;-57
2021/11/09 11:49:49;;;;;;;;;;;15.50;95.70;;;;;;4861306;29;20542;-58
2021/11/09 11:52:19;;;;;;;0.95;0.57;;;15.50;96.00;;;;;;4881017;29;19927;-57
2021/11/09 11:54:46;;;;;;;1.17;0.60;;;15.40;96.20;;;;;;4865523;29;20148;-56
2021/11/09 11:57:51;;;;;;;0.65;0.43;;;15.40;96.50;;;;;;4876915;29;20496;-57
2021/11/09 12:00:52;;;;;;;0.45;0.30;;;15.50;96.70;;;;;;4874739;29;20081;-57
2021/11/09 12:03:19;;;;;;;0.98;0.70;;;15.60;96.30;;;;;;4876422;29;20052;-56
2021/11/09 12:05:47;;;;;;;0.52;0.45;;;15.50;95.80;;;;;;4881430;29;20077;-57
2021/11/09 12:08:15;;;;;;;1.08;0.47;;;15.50;96.10;;;;;;4856383;29;20053;-57
2021/11/09 12:10:50;;;;;;;0.40;0.28;;;15.60;96.30;;;;;;4876318;29;20107;-56
2021/11/09 12:13:19;;;;;;;2.40;0.80;;;15.70;95.50;;;;;;4881522;29;20602;-58
2021/11/09 12:15:54;;;;;;;0.43;0.40;;;15.70;95.90;;;;;;4870063;29;20519;-58
2021/11/09 12:18:41;;;;;;;0.80;0.55;;;15.80;95.50;;;;;;4854950;29;20064;-58
2021/11/09 12:21:08;;;;;;;0.70;0.52;;;15.90;95.50;;;;;;4878748;29;20048;-57
2021/11/09 12:23:36;;;;;;;0.98;0.40;;;15.90;95.00;;;;;;4883510;29;20056;-58
2021/11/09 12:26:38;;;;;;;0.30;0.30;;;16.10;94.90;;;;;;4883496;29;20063;-57
2021/11/09 12:29:44;;;;;;;0.32;0.32;;;16.10;94.30;;;;;;4879425;29;20120;-57
2021/11/09 12:32:40;;;;;;;1.48;0.50;;;16.10;94.30;;;;;;4885563;29;20111;-57
2021/11/09 12:35:20;;;;;;;0.60;0.50;;;16.00;94.20;;;;;;4883638;29;20100;-54
2021/11/09 12:38:08;;;;;;;0.30;0.30;;;16.10;94.50;;;;;;4884384;29;20064;-57
2021/11/09 12:40:46;;;;;;;0.32;0.30;;;16.10;94.30;;;;;;4859760;29;20061;-56
2021/11/09 12:43:18;;;;;;;0.90;0.38;;;16.00;94.50;;;;;;4879286;29;20060;-57
2021/11/09 12:45:49;;;;;;;1.60;0.88;;;16.00;94.80;;;;;;4878675;29;20177;-57
2021/11/09 12:48:23;;;;;;;1.33;0.52;;;16.10;94.50;;;;;;4866584;29;20059;-56
2021/11/09 12:51:10;;;;;;;1.95;0.40;;;16.10;94.30;;;;;;4837844;29;20157;-57
2021/11/09 12:53:38;;;;;;;0.93;0.50;;;16.20;94.40;;;;;;4865000;29;20053;-57
2021/11/09 12:56:12;;;;;;;0.57;0.30;;;16.30;94.30;;;;;;4879079;29;20048;-57
2021/11/09 12:58:46;;;;;;;0.60;0.45;;;16.40;94.00;;;;;;4875147;29;20053;-57
2021/11/09 13:04:04;;;;;;;0.88;0.68;;;16.40;94.50;;;;;;4881294;29;20560;-56
2021/11/09 13:06:51;;;;;;;0.55;0.40;;;16.40;94.50;;;;;;4874056;29;20061;-56
2021/11/09 13:09:24;;;;;;;0.43;0.40;;;16.40;94.10;;;;;;4866130;29;20509;-57
2021/11/09 13:11:58;;;;;;;0.85;0.50;;;16.40;94.20;;;;;;4865584;29;20060;-57
2021/11/09 13:14:34;;;;;;;0.80;0.35;;;16.30;94.30;;;;;;4866420;29;20314;-58
2021/11/09 13:17:23;;;;;;;0.52;0.40;;;16.10;94.70;;;;;;4866270;29;20060;-57
2021/11/09 13:20:06;;;;;;;0.30;0.30;;;16.10;94.90;;;;;;4866344;29;20080;-54
2021/11/09 13:22:33;;;;;;;0.20;0.20;;;16.00;95.00;;;;;;4864249;29;20513;-57
2021/11/09 13:25:05;;;;;;;0.47;0.32;;;15.90;95.00;;;;;;4864870;29;20564;-57
2021/11/09 13:27:43;;;;;;;0.68;0.50;;;15.80;95.50;;;;;;4865785;29;20105;-57
2021/11/09 13:30:14;;;;;;;2.92;0.60;;;15.80;95.90;;;;;;4866002;29;20107;-56
2021/11/09 13:32:46;;;;;;;0.90;0.30;;;15.70;95.60;;;;;;4865795;29;20144;-56
2021/11/09 13:35:27;;;;;;;0.52;0.40;;;15.60;95.70;;;;;;4865923;29;20057;-56
2021/11/09 13:38:10;;;;;;;0.90;0.40;;;15.60;96.00;;;;;;4848550;29;20088;-58
2021/11/09 13:40:37;;;;;;;;;;;15.60;96.20;;;;;;4883679;29;20076;-57
2021/11/09 13:43:11;;;;;;;0.52;0.40;;;15.50;95.80;;;;;;4868563;29;20056;-55
2021/11/09 13:45:39;;;;;;;0.95;0.57;;;15.50;96.00;;;;;;4868194;29;20480;-57
2021/11/09 13:48:17;;;;;;;1.30;0.52;;;15.40;96.30;;;;;;4867620;29;20056;-56
2021/11/09 13:50:46;;;;;;;0.65;0.40;;;15.40;96.30;;;;;;4883834;29;20487;-54
2021/11/09 13:53:13;;;;;;;0.70;0.40;;;15.40;96.50;;;;;;4882283;29;20136;-57
2021/11/09 13:55:40;;;;;;;0.70;0.43;;;15.40;96.50;;;;;;4867952;29;20087;-57
2021/11/09 13:58:10;;;;;;;1.02;0.40;;;15.40;96.50;;;;;;4852093;29;20455;-57
2021/11/09 14:00:49;;;;;;;0.70;0.50;;;15.30;96.30;;;;;;4883681;29;20449;-57
2021/11/09 14:16:38;;;;;;;0.43;0.30;;;15.30;96.60;;;;;;4868679;29;20170;-55
2021/11/09 14:19:11;;;;;;;0.50;0.40;;;15.20;96.80;;;;;;4883734;29;20389;-57
2021/11/09 14:21:42;;;;;;;0.52;0.40;;;15.20;96.60;;;;;;4882154;29;20158;-55
2021/11/09 14:24:16;;;;;;;0.90;0.60;;;15.20;96.90;;;;;;4866732;29;20053;-57
2021/11/09 14:26:44;;;;;;;0.55;0.35;;;15.20;96.90;;;;;;4883654;29;20092;-56
2021/11/09 14:29:19;;;;;;;0.63;0.20;;;15.20;96.70;;;;;;4867326;29;20045;-56
2021/11/09 14:32:04;;;;;;;1.55;0.50;;;15.20;96.60;;;;;;4866919;29;20540;-57
2021/11/09 14:34:32;;;;;;;0.20;0.20;;;15.20;96.60;;;;;;4883878;29;20135;-57
2021/11/09 14:37:18;;;;;;;0.90;0.35;;;15.20;96.90;;;;;;4881433;29;20060;-57
2021/11/09 14:40:30;;;;;;;0.30;0.30;;;15.10;96.70;;;;;;4867174;29;20052;-55
2021/11/09 14:43:01;;;;;;;0.75;0.50;;;15.20;96.90;;;;;;4806613;29;20206;-58
2021/11/09 14:48:08;;;;;;;1.20;0.60;;;15.20;96.70;;;;;;4883056;29;20053;-58
2021/11/09 14:50:49;;;;;;;1.45;0.68;;;15.10;96.80;;;;;;4882851;29;20071;-58
2021/11/09 14:53:27;;;;;;;0.43;0.40;;;15.20;97.00;;;;;;4881648;29;20144;-58
2021/11/09 14:56:03;;;;;;;1.23;0.50;;;15.10;96.90;;;;;;4883378;29;20095;-58
2021/11/09 14:58:32;;;;;;;0.50;0.40;;;15.20;97.10;;;;;;4883240;29;20131;-58
2021/11/09 15:01:06;;;;;;;1.15;0.55;;;15.20;97.00;;;;;;4883369;29;20080;-60
2021/11/09 15:03:54;;;;;;;0.35;0.32;;;15.20;97.20;;;;;;4862503;29;20052;-57
2021/11/09 15:06:46;;;;;;;1.15;0.47;;;15.20;97.10;;;;;;4872959;29;20064;-59
2021/11/09 15:28:22;;;;;;;0.30;0.30;;;16.60;93.30;;;;;;4870611;29;20052;-57
2021/11/09 15:30:53;;;;;;;0.85;0.40;;;16.30;93.90;;;;;;4883101;29;20155;-56
2021/11/09 15:36:27;;;;;;;0.60;0.40;;;15.80;95.00;;;;;;4872674;29;20432;-57
2021/11/09 15:38:54;;;;;;;0.73;0.40;;;15.90;95.00;;;;;;4874565;29;20080;-58
2021/11/09 15:41:21;;;;;;;0.75;0.30;;;15.80;95.00;;;;;;4870466;29;20059;-57
2021/11/09 15:43:48;;;;;;;1.00;0.30;;;15.70;95.00;;;;;;4880430;29;20275;-56
2021/11/09 15:46:14;;;;;;;0.30;0.30;;;15.60;95.10;;;;;;4880448;29;20504;-55
2021/11/09 15:48:41;;;;;;;0.57;0.35;;;15.30;94.40;;;;;;4871777;29;20057;-57
2021/11/09 15:51:09;;;;;;;0.55;0.32;;;15.20;95.00;;;;;;4867629;29;20175;-56
2021/11/09 15:53:36;;;;;;;0.20;0.20;;;15.00;95.40;;;;;;4867403;29;20144;-55
2021/11/09 15:56:03;;;;;;;0.35;0.22;;;14.90;96.00;;;;;;4850163;29;20140;-56
2021/11/09 15:58:30;;;;;;;0.60;0.40;;;14.80;96.10;;;;;;4850707;29;20080;-58
2021/11/09 16:00:56;;;;;;;0.90;0.40;;;14.60;96.10;;;;;;4866624;29;20079;-58
2021/11/09 16:03:23;;;;;;;0.85;0.57;;;14.50;96.50;;;;;;4874002;29;20289;-57